createdAt,value
2022-08-20T00:01:21.972Z,41.49
2022-08-20T00:03:27.868Z,41.68
2022-08-20T00:05:56.666Z,42.48
2022-08-20T00:08:00.611Z,42.32
2022-08-20T00:10:03.233Z,42.46
2022-08-20T00:12:07.083Z,42.06
2022-08-20T00:14:14.601Z,42.21
2022-08-20T00:16:18.407Z,41.90
2022-08-20T00:18:22.345Z,42.26
2022-08-20T00:20:27.058Z,42.04
2022-08-20T00:22:29.717Z,42.31
2022-08-20T00:24:33.176Z,42.97
2022-08-20T00:26:35.255Z,42.44
2022-08-20T00:28:39.553Z,42.67
2022-08-20T00:30:45.502Z,42.46
2022-08-20T00:32:55.641Z,44.51
2022-08-20T00:34:57.932Z,43.26
2022-08-20T00:37:00.066Z,44.12
2022-08-20T00:39:02.493Z,44.16
2022-08-20T00:41:06.075Z,43.33
2022-08-20T00:43:44.072Z,44.76
2022-08-20T00:45:46.979Z,44.37
2022-08-20T00:47:51.312Z,44.21
2022-08-20T00:49:53.876Z,43.70
2022-08-20T00:51:59.181Z,44.38
2022-08-20T00:54:14.409Z,44.19
2022-08-20T00:56:19.759Z,44.08
2022-08-20T00:58:22.527Z,43.87
2022-08-20T01:00:32.711Z,43.52
2022-08-20T01:02:35.092Z,44.05
2022-08-20T01:04:37.721Z,43.80
2022-08-20T01:06:40.506Z,44.33
2022-08-20T01:08:43.407Z,45.17
2022-08-20T01:10:49.780Z,45.77
2022-08-20T01:12:55.656Z,44.91
2022-08-20T01:15:04.643Z,45.13
2022-08-20T01:17:08.519Z,44.81
2022-08-20T01:19:30.028Z,45.42
2022-08-20T01:21:34.516Z,45.12
2022-08-20T01:23:59.366Z,46.11
2022-08-20T01:26:13.824Z,45.43
2022-08-20T01:28:19.840Z,44.93
2022-08-20T01:30:25.958Z,45.05
2022-08-20T01:32:28.119Z,45.03
2022-08-20T01:34:39.274Z,45.05
2022-08-20T01:36:48.492Z,45.55
2022-08-20T01:38:54.931Z,46.34
2022-08-20T01:41:38.710Z,46.66
2022-08-20T01:43:46.360Z,46.11
2022-08-20T01:45:53.163Z,45.66
2022-08-20T01:47:55.421Z,45.83
2022-08-20T01:50:06.098Z,45.79
2022-08-20T01:52:09.354Z,45.36
2022-08-20T01:54:12.065Z,45.30
2022-08-20T01:56:17.998Z,45.35
2022-08-20T01:58:20.523Z,45.38
2022-08-20T02:00:24.071Z,45.62
2022-08-20T02:02:26.729Z,45.12
2022-08-20T02:04:31.645Z,45.80
2022-08-20T02:06:42.353Z,45.67
2022-08-20T02:09:01.452Z,45.84
2022-08-20T02:11:11.575Z,45.62
2022-08-20T02:13:17.361Z,45.25
2022-08-20T02:15:19.919Z,45.20
2022-08-20T02:17:38.136Z,45.29
2022-08-20T02:19:57.812Z,46.03
2022-08-20T02:22:04.616Z,46.24
2022-08-20T02:24:09.812Z,45.57
2022-08-20T02:26:12.967Z,45.69
2022-08-20T02:28:17.249Z,45.99
2022-08-20T02:30:28.603Z,45.84
2022-08-20T02:32:34.110Z,45.97
2022-08-20T02:34:36.776Z,45.54
2022-08-20T02:36:40.071Z,45.73
2022-08-20T02:38:42.864Z,45.88
2022-08-20T02:40:46.660Z,46.19
2022-08-20T02:42:48.756Z,46.08
2022-08-20T02:44:50.883Z,46.50
2022-08-20T02:46:53.273Z,46.62
2022-08-20T02:48:56.429Z,46.76
2022-08-20T02:51:02.666Z,47.30
2022-08-20T02:53:04.839Z,47.25
2022-08-20T02:55:07.699Z,47.16
2022-08-20T02:57:14.977Z,47.35
2022-08-20T02:59:19.749Z,46.87
2022-08-20T03:01:22.889Z,46.82
2022-08-20T03:03:25.616Z,47.42
2022-08-20T03:05:28.197Z,46.97
2022-08-20T03:07:30.677Z,47.26
2022-08-20T03:09:33.443Z,47.33
2022-08-20T03:11:36.005Z,46.79
2022-08-20T03:13:38.559Z,47.08
2022-08-20T03:15:44.634Z,47.24
2022-08-20T03:17:47.179Z,47.23
2022-08-20T03:19:49.245Z,47.53
2022-08-20T03:21:51.492Z,47.38
2022-08-20T03:23:53.936Z,48.10
2022-08-20T03:25:56.631Z,48.42
2022-08-20T03:27:59.378Z,48.34
2022-08-20T03:30:01.769Z,48.06
2022-08-20T03:32:07.678Z,48.37
2022-08-20T03:34:11.758Z,48.60
2022-08-20T03:36:14.269Z,49.37
2022-08-20T03:38:32.330Z,48.81
2022-08-20T03:40:35.995Z,49.62
2022-08-20T03:42:39.987Z,49.76
2022-08-20T03:44:42.133Z,49.40
2022-08-20T03:46:46.566Z,49.18
2022-08-20T03:48:48.787Z,48.29
2022-08-20T03:50:53.476Z,48.42
2022-08-20T03:52:58.835Z,48.59
2022-08-20T03:55:00.968Z,48.46
2022-08-20T03:57:12.741Z,49.43
2022-08-20T03:59:15.343Z,49.29
2022-08-20T04:01:44.843Z,49.34
2022-08-20T04:03:42.983Z,49.41
2022-08-20T04:05:45.399Z,49.40
2022-08-20T04:07:47.860Z,48.75
2022-08-20T04:09:50.147Z,49.55
2022-08-20T04:12:02.212Z,49.16
2022-08-20T04:14:04.899Z,49.46
2022-08-20T04:16:11.264Z,49.22
2022-08-20T04:18:20.655Z,49.11
2022-08-20T04:20:26.176Z,50.44
2022-08-20T04:22:28.232Z,49.97
2022-08-20T04:24:32.423Z,50.32
2022-08-20T04:26:36.456Z,49.46
2022-08-20T04:28:38.724Z,49.88
2022-08-20T04:30:44.637Z,51.16
2022-08-20T04:32:54.570Z,51.00
2022-08-20T04:34:58.805Z,51.34
2022-08-20T04:37:01.165Z,50.58
2022-08-20T04:39:03.398Z,50.30
2022-08-20T04:41:05.806Z,50.14
2022-08-20T04:43:08.149Z,49.62
2022-08-20T04:45:15.216Z,49.59
2022-08-20T04:47:23.942Z,49.25
2022-08-20T04:49:39.078Z,49.40
2022-08-20T04:51:46.298Z,48.96
2022-08-20T04:53:53.339Z,49.17
2022-08-20T04:55:59.679Z,49.24
2022-08-20T04:58:14.812Z,49.39
2022-08-20T05:00:17.552Z,49.08
2022-08-20T05:02:21.648Z,49.16
2022-08-20T05:04:27.965Z,48.72
2022-08-20T05:06:32.566Z,49.55
2022-08-20T05:08:36.248Z,49.19
2022-08-20T05:10:40.448Z,48.81
2022-08-20T05:12:44.081Z,48.50
2022-08-20T05:14:58.965Z,48.18
2022-08-20T05:17:07.158Z,48.03
2022-08-20T05:19:13.356Z,47.74
2022-08-20T05:21:15.729Z,47.05
2022-08-20T05:23:20.107Z,46.58
2022-08-20T05:25:22.521Z,45.97
2022-08-20T05:27:27.338Z,45.63
2022-08-20T05:29:29.786Z,45.28
2022-08-20T05:31:33.567Z,44.83
2022-08-20T05:33:39.869Z,44.95
2022-08-20T05:35:42.087Z,44.05
2022-08-20T05:37:45.344Z,44.17
2022-08-20T05:39:47.649Z,44.59
2022-08-20T05:41:51.111Z,44.00
2022-08-20T05:43:53.315Z,43.68
2022-08-20T05:45:58.671Z,43.63
2022-08-20T05:48:13.052Z,43.31
2022-08-20T05:50:23.243Z,43.10
2022-08-20T05:52:25.941Z,43.14
2022-08-20T05:54:28.243Z,43.20
2022-08-20T05:56:31.239Z,43.30
2022-08-20T05:58:33.789Z,43.25
2022-08-20T06:00:37.485Z,42.83
2022-08-20T06:02:59.168Z,42.73
2022-08-20T06:05:01.687Z,44.04
2022-08-20T06:07:06.865Z,43.93
2022-08-20T06:09:09.354Z,44.56
2022-08-20T06:11:16.256Z,45.08
2022-08-20T06:13:18.473Z,45.96
2022-08-20T06:15:21.119Z,46.75
2022-08-20T06:17:26.025Z,45.46
2022-08-20T06:19:38.753Z,45.56
2022-08-20T06:21:41.606Z,44.86
2022-08-20T06:23:57.504Z,44.66
2022-08-20T06:26:06.749Z,44.64
2022-08-20T06:28:13.439Z,44.41
2022-08-20T06:30:17.345Z,44.44
2022-08-20T06:32:32.053Z,43.57
2022-08-20T06:34:35.177Z,43.68
2022-08-20T06:36:37.364Z,43.77
2022-08-20T06:38:39.379Z,43.88
2022-08-20T06:40:41.771Z,44.20
2022-08-20T06:42:48.138Z,43.63
2022-08-20T06:44:51.451Z,43.25
2022-08-20T06:47:00.496Z,42.81
2022-08-20T06:49:05.399Z,42.60
2022-08-20T06:51:07.770Z,42.36
2022-08-20T06:53:15.070Z,42.55
2022-08-20T06:55:20.733Z,42.76
2022-08-20T06:57:26.181Z,42.36
2022-08-20T06:59:28.332Z,42.01
2022-08-20T07:01:30.679Z,42.01
2022-08-20T07:03:32.962Z,41.72
2022-08-20T07:05:43.526Z,41.33
2022-08-20T07:07:51.152Z,41.97
2022-08-20T07:10:03.460Z,41.50
2022-08-20T07:12:06.408Z,41.27
2022-08-20T07:14:08.814Z,41.63
2022-08-20T07:16:10.706Z,40.80
2022-08-20T07:18:14.346Z,40.94
2022-08-20T07:20:16.770Z,40.90
2022-08-20T07:22:18.733Z,40.95
2022-08-20T07:24:20.593Z,40.91
2022-08-20T07:26:23.279Z,41.28
2022-08-20T07:28:31.971Z,40.88
2022-08-20T07:30:56.181Z,40.70
2022-08-20T07:32:59.934Z,40.20
2022-08-20T07:35:02.057Z,39.97
2022-08-20T07:37:04.121Z,39.85
2022-08-20T07:39:06.796Z,39.61
2022-08-20T07:41:13.234Z,38.77
2022-08-20T07:43:16.372Z,39.14
2022-08-20T07:45:20.989Z,38.81
2022-08-20T07:47:23.324Z,38.99
2022-08-20T07:49:25.672Z,38.67
2022-08-20T07:51:27.751Z,38.58
2022-08-20T07:53:35.192Z,38.93
2022-08-20T07:55:37.829Z,38.04
2022-08-20T07:57:39.720Z,38.48
2022-08-20T07:59:41.464Z,38.49
2022-08-20T08:01:43.333Z,38.16
2022-08-20T08:03:49.593Z,37.95
2022-08-20T08:05:52.484Z,37.61
2022-08-20T08:07:54.448Z,37.49
2022-08-20T08:09:57.571Z,37.14
2022-08-20T08:12:03.034Z,37.00
2022-08-20T08:14:08.337Z,37.80
2022-08-20T08:16:11.005Z,37.43
2022-08-20T08:18:21.832Z,37.04
2022-08-20T08:20:23.988Z,37.14
2022-08-20T08:22:26.275Z,36.73
2022-08-20T08:24:28.721Z,37.10
2022-08-20T08:26:30.723Z,36.25
2022-08-20T08:28:32.571Z,36.16
2022-08-20T08:30:34.401Z,36.43
2022-08-20T08:32:58.209Z,36.29
2022-08-20T08:35:05.127Z,35.57
2022-08-20T08:37:06.929Z,36.03
2022-08-20T08:39:08.777Z,36.21
2022-08-20T08:41:23.248Z,35.82
2022-08-20T08:43:27.887Z,35.83
2022-08-20T08:45:45.828Z,34.79
2022-08-20T08:47:48.218Z,35.44
2022-08-20T08:49:50.186Z,35.33
2022-08-20T08:51:57.171Z,35.28
2022-08-20T08:54:04.636Z,34.28
2022-08-20T08:56:09.950Z,33.40
2022-08-20T08:58:17.236Z,33.21
2022-08-20T09:00:21.861Z,33.19
2022-08-20T09:02:26.298Z,33.47
2022-08-20T09:04:37.250Z,33.07
2022-08-20T09:06:40.464Z,33.38
2022-08-20T09:08:51.184Z,32.98
2022-08-20T09:10:53.396Z,33.24
2022-08-20T09:12:55.356Z,33.15
2022-08-20T09:14:57.595Z,32.88
2022-08-20T09:16:59.455Z,32.22
2022-08-20T09:19:01.209Z,31.93
2022-08-20T09:21:03.166Z,32.37
2022-08-20T09:23:08.073Z,31.74
2022-08-20T09:25:10.563Z,31.94
2022-08-20T09:27:12.994Z,31.87
2022-08-20T09:29:15.160Z,32.21
2022-08-20T09:31:18.308Z,31.50
2022-08-20T09:33:20.433Z,31.96
2022-08-20T09:35:22.301Z,31.85
2022-08-20T09:37:26.138Z,31.93
2022-08-20T09:39:27.984Z,31.80
2022-08-20T09:41:30.809Z,31.66
2022-08-20T09:43:32.818Z,31.79
2022-08-20T09:45:36.200Z,31.50
2022-08-20T09:47:39.836Z,31.30
2022-08-20T09:49:57.207Z,31.54
2022-08-20T09:52:01.514Z,31.55
2022-08-20T09:54:03.428Z,31.52
2022-08-20T09:56:05.423Z,31.62
2022-08-20T09:58:11.398Z,31.66
2022-08-20T10:00:14.119Z,32.05
2022-08-20T10:02:16.219Z,31.93
2022-08-20T10:04:18.057Z,31.80
2022-08-20T10:06:20.779Z,31.47
2022-08-20T10:08:22.771Z,31.65
2022-08-20T10:10:24.992Z,31.98
2022-08-20T10:12:27.148Z,32.30
2022-08-20T10:14:29.000Z,32.14
2022-08-20T10:16:31.443Z,32.32
2022-08-20T10:18:35.025Z,32.49
2022-08-20T10:20:37.240Z,32.57
2022-08-20T10:22:39.057Z,32.31
2022-08-20T10:24:40.924Z,32.20
2022-08-20T10:26:42.747Z,32.04
2022-08-20T10:28:44.907Z,32.46
2022-08-20T10:30:47.125Z,32.02
2022-08-20T10:32:49.125Z,32.43
2022-08-20T10:34:50.939Z,32.34
2022-08-20T10:36:52.865Z,32.24
2022-08-20T10:38:54.819Z,31.77
2022-08-20T10:40:57.143Z,31.80
2022-08-20T10:42:59.073Z,31.37
2022-08-20T10:45:00.864Z,31.22
2022-08-20T10:47:16.421Z,31.03
2022-08-20T10:49:18.233Z,31.11
2022-08-20T10:51:20.057Z,31.05
2022-08-20T10:53:21.901Z,31.38
2022-08-20T10:55:23.716Z,31.51
2022-08-20T10:57:28.267Z,31.14
2022-08-20T10:59:31.000Z,31.57
2022-08-20T11:01:36.190Z,31.37
2022-08-20T11:03:38.655Z,31.20
2022-08-20T11:05:40.471Z,31.19
2022-08-20T11:07:50.624Z,31.72
2022-08-20T11:09:58.665Z,31.11
2022-08-20T11:12:00.538Z,30.92
2022-08-20T11:14:02.250Z,31.07
2022-08-20T11:16:05.194Z,31.34
2022-08-20T11:18:08.028Z,31.20
2022-08-20T11:20:13.358Z,31.25
2022-08-20T11:22:15.910Z,31.21
2022-08-20T11:24:19.008Z,32.17
2022-08-20T11:26:25.177Z,33.04
2022-08-20T11:28:31.320Z,33.03
2022-08-20T11:30:36.547Z,33.12
2022-08-20T11:32:38.531Z,33.11
2022-08-20T11:34:40.434Z,33.08
2022-08-20T11:36:42.603Z,33.02
2022-08-20T11:38:44.539Z,32.96
2022-08-20T11:40:47.231Z,32.96
2022-08-20T11:43:12.954Z,32.99
2022-08-20T11:45:11.187Z,32.62
2022-08-20T11:47:26.129Z,32.54
2022-08-20T11:49:27.990Z,32.61
2022-08-20T11:51:30.205Z,32.75
2022-08-20T11:53:38.061Z,32.86
2022-08-20T11:55:42.130Z,32.83
2022-08-20T11:57:47.444Z,32.81
2022-08-20T11:59:51.560Z,32.48
2022-08-20T12:02:02.804Z,32.91
2022-08-20T12:04:05.333Z,33.20
2022-08-20T12:06:07.743Z,33.09
2022-08-20T12:08:10.295Z,32.89
2022-08-20T12:10:29.231Z,33.01
2022-08-20T12:12:31.151Z,33.03
2022-08-20T12:14:33.409Z,32.86
2022-08-20T12:16:35.608Z,33.16
2022-08-20T12:18:38.366Z,33.29
2022-08-20T12:20:42.521Z,33.42
2022-08-20T12:22:45.450Z,33.23
2022-08-20T12:24:48.054Z,33.39
2022-08-20T12:26:53.210Z,33.19
2022-08-20T12:28:56.109Z,33.33
2022-08-20T12:31:02.755Z,33.16
2022-08-20T12:33:05.275Z,33.21
2022-08-20T12:35:10.539Z,33.25
2022-08-20T12:37:16.350Z,33.30
2022-08-20T12:39:18.622Z,33.34
2022-08-20T12:41:20.755Z,32.90
2022-08-20T12:43:24.998Z,33.07
2022-08-20T12:45:28.127Z,33.32
2022-08-20T12:47:32.902Z,33.07
2022-08-20T12:49:35.525Z,32.82
2022-08-20T12:51:38.044Z,32.96
2022-08-20T12:53:40.746Z,32.82
2022-08-20T12:55:42.926Z,33.08
2022-08-20T12:57:53.986Z,32.55
2022-08-20T13:00:01.891Z,32.46
2022-08-20T13:02:14.117Z,33.00
2022-08-20T13:04:21.258Z,32.16
2022-08-20T13:06:23.588Z,32.43
2022-08-20T13:08:26.270Z,32.26
2022-08-20T13:10:36.897Z,32.11
2022-08-20T13:12:39.196Z,32.10
2022-08-20T13:14:41.955Z,32.28
2022-08-20T13:16:44.302Z,32.19
2022-08-20T13:18:47.502Z,32.01
2022-08-20T13:20:49.857Z,31.72
2022-08-20T13:22:52.931Z,31.94
2022-08-20T13:24:55.297Z,31.62
2022-08-20T13:27:12.484Z,31.33
2022-08-20T13:29:15.558Z,31.51
2022-08-20T13:31:18.036Z,31.25
2022-08-20T13:33:21.637Z,31.42
2022-08-20T13:35:26.505Z,31.53
2022-08-20T13:37:29.961Z,31.67
2022-08-20T13:39:31.954Z,31.54
2022-08-20T13:41:34.464Z,31.44
2022-08-20T13:43:36.703Z,31.51
2022-08-20T13:45:40.906Z,31.39
2022-08-20T13:47:43.733Z,31.50
2022-08-20T13:49:46.317Z,31.44
2022-08-20T13:51:48.860Z,31.64
2022-08-20T13:53:54.574Z,31.46
2022-08-20T13:55:59.240Z,31.43
2022-08-20T13:58:05.996Z,31.56
2022-08-20T14:00:12.958Z,31.64
2022-08-20T14:02:16.353Z,31.80
2022-08-20T14:04:18.803Z,31.45
2022-08-20T14:06:20.991Z,31.63
2022-08-20T14:08:24.424Z,31.46
2022-08-20T14:10:31.508Z,31.63
2022-08-20T14:12:33.941Z,31.37
2022-08-20T14:14:36.418Z,31.35
2022-08-20T14:16:39.979Z,31.41
2022-08-20T14:18:42.650Z,31.25
2022-08-20T14:20:46.053Z,31.27
2022-08-20T14:22:48.579Z,30.87
2022-08-20T14:24:51.408Z,31.08
2022-08-20T14:26:53.421Z,31.40
2022-08-20T14:28:55.430Z,31.59
2022-08-20T14:30:57.544Z,31.38
2022-08-20T14:33:02.530Z,31.79
2022-08-20T14:35:05.747Z,31.48
2022-08-20T14:37:25.176Z,31.72
2022-08-20T14:39:27.557Z,32.32
2022-08-20T14:41:30.025Z,32.26
2022-08-20T14:43:32.493Z,33.21
2022-08-20T14:45:34.673Z,33.28
2022-08-20T14:47:43.020Z,35.12
2022-08-20T14:49:46.148Z,35.33
2022-08-20T14:51:48.121Z,36.17
2022-08-20T14:53:50.767Z,36.87
2022-08-20T14:55:52.640Z,37.13
2022-08-20T14:57:54.860Z,38.45
2022-08-20T14:59:56.749Z,38.08
2022-08-20T15:01:59.849Z,38.50
2022-08-20T15:04:01.662Z,38.66
2022-08-20T15:06:03.723Z,38.87
2022-08-20T15:08:10.462Z,38.86
2022-08-20T15:10:19.858Z,39.69
2022-08-20T15:12:23.011Z,39.53
2022-08-20T15:14:25.490Z,40.02
2022-08-20T15:16:29.507Z,40.08
2022-08-20T15:18:31.999Z,40.87
2022-08-20T15:20:38.161Z,40.76
2022-08-20T15:22:41.725Z,41.79
2022-08-20T15:24:45.837Z,41.86
2022-08-20T15:26:48.186Z,42.70
2022-08-20T15:28:50.128Z,43.25
2022-08-20T15:30:52.084Z,42.59
2022-08-20T15:32:56.133Z,43.84
2022-08-20T15:34:59.591Z,43.41
2022-08-20T15:37:19.789Z,44.86
2022-08-20T15:39:21.567Z,43.56
2022-08-20T15:41:23.475Z,43.62
2022-08-20T15:43:25.362Z,44.00
2022-08-20T15:45:27.846Z,44.13
2022-08-20T15:47:34.213Z,44.40
2022-08-20T15:49:37.449Z,44.75
2022-08-20T15:51:46.728Z,45.32
2022-08-20T15:53:56.879Z,46.26
2022-08-20T15:56:20.685Z,47.22
2022-08-20T15:58:37.903Z,46.82
2022-08-20T16:01:24.893Z,47.01
2022-08-20T16:03:53.969Z,46.65
2022-08-20T16:06:18.083Z,47.37
2022-08-20T16:08:44.551Z,47.67
2022-08-20T16:10:52.054Z,47.08
2022-08-20T16:12:58.086Z,46.83
2022-08-20T16:15:07.827Z,46.09
2022-08-20T16:17:15.266Z,45.34
2022-08-20T16:19:29.452Z,45.44
2022-08-20T16:21:37.590Z,44.48
2022-08-20T16:23:42.719Z,44.37
2022-08-20T16:25:59.084Z,45.24
2022-08-20T16:28:09.902Z,45.26
2022-08-20T16:30:21.452Z,44.72
2022-08-20T16:32:44.649Z,45.04
2022-08-20T16:35:01.488Z,45.90
2022-08-20T16:37:25.317Z,44.65
2022-08-20T16:39:32.324Z,44.62
2022-08-20T16:41:49.722Z,44.57
2022-08-20T16:43:54.852Z,43.70
2022-08-20T16:46:12.239Z,44.43
2022-08-20T16:48:14.143Z,44.47
2022-08-20T16:50:29.216Z,45.59
2022-08-20T16:52:31.565Z,43.76
2022-08-20T16:54:33.455Z,43.73
2022-08-20T16:56:38.899Z,45.30
2022-08-20T16:58:45.427Z,45.12
2022-08-20T17:00:48.173Z,44.92
2022-08-20T17:02:57.856Z,45.65
2022-08-20T17:05:04.734Z,45.71
2022-08-20T17:07:09.877Z,44.96
2022-08-20T17:09:21.480Z,45.49
2022-08-20T17:11:31.961Z,45.16
2022-08-20T17:13:37.155Z,44.70
2022-08-20T17:15:39.930Z,44.78
2022-08-20T17:17:41.693Z,44.75
2022-08-20T17:19:52.039Z,45.21
2022-08-20T17:22:09.281Z,44.91
2022-08-20T17:24:25.417Z,44.98
2022-08-20T17:26:42.046Z,44.31
2022-08-20T17:28:55.634Z,44.62
2022-08-20T17:30:58.237Z,44.85
2022-08-20T17:33:03.582Z,45.28
2022-08-20T17:35:06.127Z,48.43
2022-08-20T17:37:18.280Z,48.13
2022-08-20T17:39:23.244Z,48.52
2022-08-20T17:41:31.697Z,49.25
2022-08-20T17:43:34.819Z,48.75
2022-08-20T17:45:46.585Z,48.52
2022-08-20T17:47:49.058Z,48.15
2022-08-20T17:50:03.380Z,47.94
2022-08-20T17:52:13.092Z,47.83
2022-08-20T17:54:26.045Z,47.79
2022-08-20T17:56:34.627Z,47.20
2022-08-20T17:58:54.191Z,47.38
2022-08-20T18:00:56.455Z,46.94
2022-08-20T18:03:02.107Z,47.85
2022-08-20T18:05:12.246Z,48.08
2022-08-20T18:07:25.413Z,48.14
2022-08-20T18:09:46.538Z,48.88
2022-08-20T18:12:33.705Z,48.77
2022-08-20T18:15:08.720Z,48.02
2022-08-20T18:17:38.742Z,48.04
2022-08-20T18:20:02.102Z,47.81
2022-08-20T18:22:08.619Z,47.51
2022-08-20T18:24:21.958Z,46.80
2022-08-20T18:26:33.068Z,46.63
2022-08-20T18:28:41.347Z,46.57
2022-08-20T18:30:53.341Z,46.55
2022-08-20T18:33:09.037Z,46.15
2022-08-20T18:35:15.919Z,45.56
2022-08-20T18:37:17.637Z,46.14
2022-08-20T18:39:28.530Z,45.76
2022-08-20T18:41:54.704Z,45.89
2022-08-20T18:44:09.051Z,46.61
2022-08-20T18:46:21.882Z,45.48
2022-08-20T18:48:25.110Z,45.47
2022-08-20T18:50:39.334Z,45.25
2022-08-20T18:52:44.815Z,45.23
2022-08-20T18:54:52.253Z,45.44
2022-08-20T18:57:40.657Z,44.81
2022-08-20T18:59:47.523Z,45.31
2022-08-20T19:01:49.638Z,45.44
2022-08-20T19:03:54.609Z,45.77
2022-08-20T19:06:24.861Z,46.52
2022-08-20T19:08:46.174Z,45.82
2022-08-20T19:10:52.420Z,46.56
2022-08-20T19:13:00.095Z,46.12
2022-08-20T19:15:07.126Z,45.89
2022-08-20T19:17:24.080Z,46.27
2022-08-20T19:19:30.775Z,45.32
2022-08-20T19:21:35.746Z,45.77
2022-08-20T19:23:40.913Z,45.34
2022-08-20T19:25:57.069Z,45.35
2022-08-20T19:28:00.982Z,45.73
2022-08-20T19:30:02.975Z,45.62
2022-08-20T19:32:08.562Z,44.94
2022-08-20T19:34:19.603Z,45.94
2022-08-20T19:36:28.452Z,46.06
2022-08-20T19:38:30.806Z,45.62
2022-08-20T19:40:39.204Z,45.95
2022-08-20T19:42:43.181Z,45.94
2022-08-20T19:44:49.973Z,47.31
2022-08-20T19:46:52.278Z,46.88
2022-08-20T19:49:05.764Z,46.04
2022-08-20T19:51:25.881Z,46.34
2022-08-20T19:53:32.607Z,46.61
2022-08-20T19:55:36.638Z,46.64
2022-08-20T19:57:38.569Z,46.64
2022-08-20T19:59:51.379Z,46.62
2022-08-20T20:02:00.293Z,46.78
2022-08-20T20:04:05.249Z,46.40
2022-08-20T20:06:17.331Z,46.78
2022-08-20T20:08:20.803Z,46.64
2022-08-20T20:10:22.602Z,47.83
2022-08-20T20:12:24.843Z,47.07
2022-08-20T20:14:31.841Z,47.34
2022-08-20T20:16:35.208Z,48.84
2022-08-20T20:18:40.796Z,49.10
2022-08-20T20:21:11.846Z,49.44
2022-08-20T20:23:46.866Z,49.78
2022-08-20T20:25:56.734Z,48.88
2022-08-20T20:28:09.167Z,50.21
2022-08-20T20:30:13.145Z,49.25
2022-08-20T20:32:20.784Z,49.77
2022-08-20T20:34:30.302Z,49.37
2022-08-20T20:36:39.372Z,50.11
2022-08-20T20:39:05.783Z,49.39
2022-08-20T20:41:20.646Z,49.37
2022-08-20T20:43:33.055Z,50.02
2022-08-20T20:45:39.286Z,49.22
2022-08-20T20:47:51.412Z,48.66
2022-08-20T20:49:55.227Z,48.55
2022-08-20T20:52:15.179Z,48.26
2022-08-20T20:54:47.132Z,49.53
2022-08-20T20:56:59.035Z,48.67
2022-08-20T20:59:06.254Z,49.14
2022-08-20T21:01:09.062Z,48.72
2022-08-20T21:03:11.494Z,49.96
2022-08-20T21:05:15.905Z,49.97
2022-08-20T21:07:21.854Z,50.04
2022-08-20T21:09:25.858Z,49.72
2022-08-20T21:11:31.621Z,49.58
2022-08-20T21:13:33.998Z,49.39
2022-08-20T21:15:37.605Z,49.59
2022-08-20T21:17:39.848Z,50.00
2022-08-20T21:19:45.147Z,49.22
2022-08-20T21:21:48.079Z,49.06
2022-08-20T21:23:50.435Z,49.17
2022-08-20T21:25:52.846Z,49.32
2022-08-20T21:27:55.761Z,49.73
2022-08-20T21:29:58.054Z,50.30
2022-08-20T21:32:00.751Z,50.59
2022-08-20T21:34:03.162Z,50.70
2022-08-20T21:36:06.086Z,50.71
2022-08-20T21:38:08.827Z,50.68
2022-08-20T21:40:14.361Z,50.29
2022-08-20T21:42:29.052Z,50.34
2022-08-20T21:44:35.295Z,50.67
2022-08-20T21:46:37.365Z,50.61
2022-08-20T21:48:39.811Z,51.16
2022-08-20T21:50:42.625Z,50.18
2022-08-20T21:52:58.068Z,50.77
2022-08-20T21:55:02.685Z,51.11
2022-08-20T21:57:30.033Z,51.44
2022-08-20T21:59:34.443Z,51.44
2022-08-20T22:01:38.413Z,50.88
2022-08-20T22:03:41.123Z,50.76
2022-08-20T22:05:44.282Z,50.99
2022-08-20T22:07:46.637Z,50.98
2022-08-20T22:09:48.807Z,51.31
2022-08-20T22:11:54.660Z,51.01
2022-08-20T22:13:58.072Z,50.50
2022-08-20T22:16:06.351Z,51.21
2022-08-20T22:18:11.883Z,51.78
2022-08-20T22:20:14.293Z,52.31
2022-08-20T22:22:17.631Z,52.52
2022-08-20T22:24:20.057Z,53.16
2022-08-20T22:26:22.636Z,53.47
2022-08-20T22:28:29.853Z,53.30
2022-08-20T22:30:32.578Z,53.39
2022-08-20T22:32:50.458Z,53.33
2022-08-20T22:34:54.437Z,53.11
2022-08-20T22:36:58.441Z,53.21
2022-08-20T22:39:00.819Z,53.02
2022-08-20T22:41:08.986Z,53.65
2022-08-20T22:43:13.266Z,53.33
2022-08-20T22:45:15.875Z,53.57
2022-08-20T22:47:24.841Z,54.06
2022-08-20T22:49:31.029Z,54.11
2022-08-20T22:51:36.753Z,54.05
2022-08-20T22:53:48.649Z,53.58
2022-08-20T22:55:52.023Z,53.84
2022-08-20T22:57:54.978Z,53.16
2022-08-20T22:59:59.697Z,53.67
2022-08-20T23:02:08.345Z,53.36
2022-08-20T23:04:17.507Z,53.29
2022-08-20T23:06:20.400Z,53.14
2022-08-20T23:08:23.109Z,53.27
2022-08-20T23:10:32.037Z,54.21
2022-08-20T23:12:34.289Z,54.43
2022-08-20T23:14:37.674Z,53.95
2022-08-20T23:16:46.783Z,54.01
2022-08-20T23:18:49.128Z,54.20
2022-08-20T23:20:56.378Z,54.95
2022-08-20T23:23:00.531Z,55.43
2022-08-20T23:25:06.065Z,55.14
2022-08-20T23:27:12.536Z,54.67
2022-08-20T23:29:22.206Z,55.38
2022-08-20T23:31:27.419Z,54.62
2022-08-20T23:33:31.757Z,54.46
2022-08-20T23:35:34.165Z,54.52
2022-08-20T23:37:42.347Z,55.56
2022-08-20T23:39:46.531Z,55.76
2022-08-20T23:41:48.777Z,55.87
2022-08-20T23:43:51.443Z,56.21
2022-08-20T23:46:04.468Z,58.26
2022-08-20T23:48:07.234Z,57.62
2022-08-20T23:50:13.371Z,57.88
2022-08-20T23:52:15.553Z,57.37
2022-08-20T23:54:18.136Z,57.79
2022-08-20T23:56:20.307Z,57.56
2022-08-20T23:58:23.059Z,57.73
